createdAt,value
2022-11-21T00:01:13.306Z,78.90
2022-11-21T00:03:40.464Z,78.20
2022-11-21T00:06:07.572Z,78.30
2022-11-21T00:08:34.711Z,78.30
2022-11-21T00:11:02.071Z,78.30
2022-11-21T00:13:29.188Z,78.30
2022-11-21T00:15:56.306Z,78.40
2022-11-21T00:18:23.550Z,78.60
2022-11-21T00:20:50.698Z,78.40
2022-11-21T00:23:17.826Z,78.40
2022-11-21T00:25:44.882Z,78.30
2022-11-21T00:28:12.222Z,78.40
2022-11-21T00:30:39.329Z,78.30
2022-11-21T00:33:06.460Z,78.20
2022-11-21T00:35:33.563Z,78.30
2022-11-21T00:38:00.673Z,78.40
2022-11-21T00:40:27.798Z,78.50
2022-11-21T00:42:54.941Z,78.50
2022-11-21T00:45:24.442Z,78.50
2022-11-21T00:47:51.819Z,78.40
2022-11-21T00:50:18.996Z,78.60
2022-11-21T00:52:46.129Z,78.70
2022-11-21T00:55:13.242Z,78.70
2022-11-21T00:57:40.355Z,78.70
2022-11-21T01:00:08.167Z,78.70
2022-11-21T01:02:35.400Z,78.70
2022-11-21T01:05:02.571Z,78.60
2022-11-21T01:07:29.871Z,78.60
2022-11-21T01:09:57.040Z,78.70
2022-11-21T01:12:24.673Z,78.80
2022-11-21T01:14:51.891Z,78.60
2022-11-21T01:17:19.076Z,78.70
2022-11-21T01:19:46.167Z,79.00
2022-11-21T01:22:13.384Z,78.80
2022-11-21T01:24:40.566Z,79.00
2022-11-21T01:27:07.716Z,78.90
2022-11-21T01:29:34.828Z,78.80
2022-11-21T01:32:01.965Z,78.80
2022-11-21T01:34:29.469Z,78.80
2022-11-21T01:36:56.723Z,78.70
2022-11-21T01:39:23.906Z,79.00
2022-11-21T01:41:51.067Z,78.70
2022-11-21T01:44:46.402Z,78.70
2022-11-21T01:47:13.501Z,79.00
2022-11-21T01:49:41.920Z,79.10
2022-11-21T01:52:09.040Z,78.70
2022-11-21T01:54:52.745Z,78.80
2022-11-21T01:57:25.438Z,78.90
2022-11-21T02:00:00.621Z,78.80
2022-11-21T02:02:34.598Z,78.80
2022-11-21T02:05:02.830Z,78.90
2022-11-21T02:07:34.282Z,78.80
2022-11-21T02:10:03.259Z,78.80
2022-11-21T02:12:44.848Z,78.90
2022-11-21T02:15:12.481Z,79.10
2022-11-21T02:17:39.791Z,78.80
2022-11-21T02:20:12.539Z,78.90
2022-11-21T02:23:08.173Z,78.80
2022-11-21T02:25:37.871Z,78.90
2022-11-21T02:28:11.646Z,78.90
2022-11-21T02:30:41.550Z,78.80
2022-11-21T02:33:09.924Z,78.80
2022-11-21T02:35:37.235Z,79.00
2022-11-21T02:38:16.882Z,78.80
2022-11-21T02:41:13.901Z,78.70
2022-11-21T02:44:07.416Z,78.80
2022-11-21T02:46:36.002Z,78.70
2022-11-21T02:49:08.025Z,78.90
2022-11-21T02:51:35.160Z,79.00
2022-11-21T02:54:02.296Z,79.00
2022-11-21T02:56:29.576Z,78.90
2022-11-21T02:58:56.850Z,78.70
2022-11-21T03:01:23.961Z,79.00
2022-11-21T03:03:51.078Z,78.90
2022-11-21T03:06:18.143Z,78.90
2022-11-21T03:08:45.312Z,78.80
2022-11-21T03:11:12.452Z,78.80
2022-11-21T03:13:39.558Z,78.70
2022-11-21T03:16:06.680Z,78.70
2022-11-21T03:18:33.726Z,78.80
2022-11-21T03:21:00.984Z,78.90
2022-11-21T03:23:28.049Z,78.80
2022-11-21T03:25:55.134Z,78.90
2022-11-21T03:28:22.297Z,78.90
2022-11-21T03:30:49.462Z,78.90
2022-11-21T03:33:16.888Z,78.90
2022-11-21T03:35:44.000Z,79.00
2022-11-21T03:38:11.095Z,78.90
2022-11-21T03:40:38.223Z,78.70
2022-11-21T03:43:06.443Z,79.00
2022-11-21T03:45:33.604Z,79.10
2022-11-21T03:48:01.002Z,79.00
2022-11-21T03:50:28.147Z,79.10
2022-11-21T03:52:55.247Z,78.90
2022-11-21T03:55:22.418Z,78.90
2022-11-21T03:57:49.583Z,79.00
2022-11-21T04:00:17.257Z,78.90
2022-11-21T04:02:44.549Z,79.00
2022-11-21T04:05:11.684Z,79.00
2022-11-21T04:07:38.867Z,79.20
2022-11-21T04:10:06.423Z,79.10
2022-11-21T04:12:33.599Z,79.20
2022-11-21T04:15:02.929Z,79.20
2022-11-21T04:17:32.004Z,79.20
2022-11-21T04:19:59.118Z,79.20
2022-11-21T04:22:26.204Z,79.10
2022-11-21T04:24:53.306Z,79.20
2022-11-21T04:27:20.478Z,79.20
2022-11-21T04:29:47.935Z,79.20
2022-11-21T04:32:15.017Z,79.20
2022-11-21T04:34:42.283Z,79.70
2022-11-21T04:37:11.793Z,79.20
2022-11-21T04:39:39.098Z,79.30
2022-11-21T04:42:06.233Z,79.30
2022-11-21T04:44:33.344Z,79.30
2022-11-21T04:47:05.014Z,79.20
2022-11-21T04:49:32.837Z,79.20
2022-11-21T04:51:59.980Z,79.30
2022-11-21T04:54:27.463Z,79.20
2022-11-21T04:56:54.969Z,79.30
2022-11-21T04:59:22.325Z,79.50
2022-11-21T05:01:49.440Z,79.30
2022-11-21T05:04:16.529Z,79.50
2022-11-21T05:06:43.713Z,79.40
2022-11-21T05:09:10.838Z,79.40
2022-11-21T05:11:56.240Z,79.30
2022-11-21T05:14:26.786Z,79.30
2022-11-21T05:16:54.137Z,79.40
2022-11-21T05:19:21.304Z,79.50
2022-11-21T05:21:48.484Z,79.60
2022-11-21T05:24:15.559Z,79.60
2022-11-21T05:26:42.645Z,79.50
2022-11-21T05:29:09.818Z,79.60
2022-11-21T05:31:36.891Z,79.50
2022-11-21T05:34:03.988Z,79.60
2022-11-21T05:36:31.176Z,79.50
2022-11-21T05:38:58.460Z,79.60
2022-11-21T05:41:25.643Z,79.70
2022-11-21T05:43:52.818Z,79.60
2022-11-21T05:46:22.323Z,79.70
2022-11-21T05:48:50.532Z,79.70
2022-11-21T05:51:18.709Z,79.70
2022-11-21T05:53:46.353Z,79.70
2022-11-21T05:56:15.884Z,79.80
2022-11-21T05:58:43.355Z,79.80
2022-11-21T06:01:12.303Z,79.90
2022-11-21T06:03:41.036Z,79.80
2022-11-21T06:06:13.429Z,80.00
2022-11-21T06:08:43.295Z,80.30
2022-11-21T06:11:15.810Z,80.60
2022-11-21T06:13:43.466Z,80.40
2022-11-21T06:16:13.380Z,80.30
2022-11-21T06:18:43.656Z,80.40
2022-11-21T06:21:19.725Z,80.60
2022-11-21T06:23:47.970Z,80.90
2022-11-21T06:26:18.295Z,80.80
2022-11-21T06:28:46.634Z,81.00
2022-11-21T06:31:22.288Z,80.80
2022-11-21T06:33:53.676Z,81.20
2022-11-21T06:36:20.977Z,80.90
2022-11-21T06:38:48.984Z,81.00
2022-11-21T06:41:21.543Z,81.00
2022-11-21T06:43:48.730Z,81.00
2022-11-21T06:46:19.366Z,81.20
2022-11-21T06:48:46.572Z,81.00
2022-11-21T06:51:21.048Z,81.20
2022-11-21T06:53:56.034Z,81.10
2022-11-21T06:56:28.621Z,81.20
2022-11-21T06:58:56.436Z,81.20
2022-11-21T07:01:24.201Z,81.30
2022-11-21T07:03:51.984Z,81.30
2022-11-21T07:06:19.115Z,81.30
2022-11-21T07:08:46.254Z,81.20
2022-11-21T07:11:30.095Z,81.10
2022-11-21T07:13:58.232Z,81.20
2022-11-21T07:16:26.549Z,81.30
2022-11-21T07:18:53.978Z,81.20
2022-11-21T07:21:22.564Z,82.00
2022-11-21T07:23:49.835Z,81.40
2022-11-21T07:26:19.376Z,81.30
2022-11-21T07:28:46.785Z,81.50
2022-11-21T07:31:14.493Z,81.30
2022-11-21T07:33:46.906Z,81.20
2022-11-21T07:36:14.170Z,81.40
2022-11-21T07:38:42.024Z,81.30
2022-11-21T07:41:10.341Z,81.40
2022-11-21T07:43:37.592Z,81.40
2022-11-21T07:46:04.774Z,81.40
2022-11-21T07:48:31.909Z,81.60
2022-11-21T07:50:59.052Z,81.50
2022-11-21T07:53:26.176Z,81.50
2022-11-21T07:55:53.457Z,81.60
2022-11-21T07:58:20.638Z,81.50
2022-11-21T08:00:47.781Z,81.70
2022-11-21T08:03:14.954Z,81.60
2022-11-21T08:05:44.693Z,81.40
2022-11-21T08:08:13.366Z,81.60
2022-11-21T08:10:45.645Z,81.60
2022-11-21T08:13:13.321Z,81.70
2022-11-21T08:15:41.159Z,81.80
2022-11-21T08:18:13.773Z,81.70
2022-11-21T08:20:41.480Z,81.70
2022-11-21T08:23:10.087Z,81.70
2022-11-21T08:25:41.475Z,81.90
2022-11-21T08:28:10.171Z,81.80
2022-11-21T08:30:38.478Z,81.80
2022-11-21T08:33:06.507Z,81.80
2022-11-21T08:35:36.386Z,81.90
2022-11-21T08:38:03.540Z,81.80
2022-11-21T08:40:31.939Z,81.80
2022-11-21T08:43:05.877Z,82.00
2022-11-21T08:45:34.614Z,82.00
2022-11-21T08:48:02.370Z,81.90
2022-11-21T08:50:29.642Z,82.00
2022-11-21T08:53:02.151Z,82.10
2022-11-21T08:55:32.195Z,82.10
2022-11-21T08:57:59.630Z,82.20
2022-11-21T09:00:27.396Z,82.30
2022-11-21T09:02:54.618Z,82.30
2022-11-21T09:05:21.761Z,82.40
2022-11-21T09:07:49.049Z,82.40
2022-11-21T09:10:16.265Z,82.40
2022-11-21T09:12:43.727Z,82.50
2022-11-21T09:15:30.253Z,82.40
2022-11-21T09:18:04.766Z,82.40
2022-11-21T09:20:34.352Z,82.60
2022-11-21T09:23:06.536Z,82.60
2022-11-21T09:25:34.337Z,82.60
2022-11-21T09:28:03.833Z,82.60
2022-11-21T09:30:31.109Z,82.60
2022-11-21T09:33:02.152Z,82.70
2022-11-21T09:35:30.149Z,82.60
2022-11-21T09:37:58.759Z,82.70
2022-11-21T09:40:26.449Z,82.70
2022-11-21T09:43:20.734Z,82.70
2022-11-21T09:46:13.333Z,82.70
2022-11-21T09:48:52.216Z,82.70
2022-11-21T09:51:21.397Z,82.80
2022-11-21T09:54:03.705Z,82.90
2022-11-21T09:56:35.561Z,83.10
2022-11-21T09:59:11.577Z,83.00
2022-11-21T10:01:39.115Z,83.00
2022-11-21T10:04:06.280Z,83.00
2022-11-21T10:06:40.778Z,83.00
2022-11-21T10:09:45.095Z,83.20
2022-11-21T10:12:42.797Z,83.10
2022-11-21T10:15:32.279Z,83.20
2022-11-21T10:18:21.318Z,83.00
2022-11-21T10:21:15.833Z,83.50
2022-11-21T10:23:54.617Z,83.40
2022-11-21T10:26:44.998Z,83.30
2022-11-21T10:29:15.432Z,83.60
2022-11-21T10:31:47.125Z,83.50
2022-11-21T10:34:19.600Z,83.40
2022-11-21T10:36:55.699Z,83.40
2022-11-21T10:39:33.228Z,83.70
2022-11-21T10:42:35.947Z,83.50
2022-11-21T10:45:16.521Z,83.60
2022-11-21T10:47:47.879Z,83.60
2022-11-21T10:50:32.218Z,83.60
2022-11-21T10:53:02.088Z,83.80
2022-11-21T10:55:29.345Z,83.70
2022-11-21T10:57:56.435Z,83.70
2022-11-21T11:00:27.696Z,83.70
2022-11-21T11:03:02.168Z,83.70
2022-11-21T11:05:31.243Z,83.80
2022-11-21T11:08:11.326Z,84.00
2022-11-21T11:10:41.071Z,83.70
2022-11-21T11:13:46.727Z,84.00
2022-11-21T11:16:21.286Z,84.00
2022-11-21T11:19:03.420Z,84.00
2022-11-21T11:21:44.249Z,84.20
2022-11-21T11:24:14.450Z,84.00
2022-11-21T11:26:48.626Z,84.10
2022-11-21T11:29:20.415Z,84.20
2022-11-21T11:31:59.652Z,84.00
2022-11-21T11:34:40.111Z,84.10
2022-11-21T11:37:17.463Z,84.00
2022-11-21T11:40:24.393Z,84.10
2022-11-21T11:43:21.780Z,84.20
2022-11-21T11:46:13.404Z,84.20
2022-11-21T11:49:03.612Z,84.20
2022-11-21T11:51:40.304Z,84.40
2022-11-21T11:54:14.544Z,84.70
2022-11-21T11:56:43.653Z,84.50
2022-11-21T11:59:27.383Z,84.70
2022-11-21T12:02:11.861Z,84.50
2022-11-21T12:04:51.331Z,84.50
2022-11-21T12:08:39.036Z,84.60
2022-11-21T12:11:06.480Z,84.70
2022-11-21T12:13:35.954Z,84.60
2022-11-21T12:16:13.176Z,84.60
2022-11-21T12:18:58.822Z,84.80
2022-11-21T12:21:26.490Z,84.70
2022-11-21T12:23:55.145Z,84.80
2022-11-21T12:26:48.086Z,84.80
2022-11-21T12:29:34.960Z,84.90
2022-11-21T12:32:20.200Z,84.80
2022-11-21T12:34:56.168Z,85.00
2022-11-21T12:37:26.284Z,85.00
2022-11-21T12:40:20.253Z,84.90
2022-11-21T12:43:08.313Z,87.60
2022-11-21T12:45:55.384Z,89.60
2022-11-21T12:49:13.325Z,90.10
2022-11-21T12:52:29.826Z,90.30
2022-11-21T12:55:00.968Z,90.30
2022-11-21T12:58:06.402Z,90.40
2022-11-21T13:00:43.076Z,90.50
2022-11-21T13:03:25.012Z,90.40
2022-11-21T13:05:55.671Z,90.40
2022-11-21T13:08:29.576Z,90.30
2022-11-21T13:11:26.197Z,90.30
2022-11-21T13:14:19.711Z,90.30
2022-11-21T13:17:20.206Z,90.20
2022-11-21T13:19:57.319Z,90.20
2022-11-21T13:22:36.553Z,90.10
2022-11-21T13:25:12.992Z,90.10
2022-11-21T13:27:40.078Z,90.00
2022-11-21T13:30:07.190Z,89.80
2022-11-21T13:32:47.986Z,89.80
2022-11-21T13:35:15.180Z,89.90
2022-11-21T13:38:02.313Z,89.80
2022-11-21T13:40:31.998Z,89.70
2022-11-21T13:43:32.748Z,89.70
2022-11-21T13:46:00.762Z,89.60
2022-11-21T13:48:31.394Z,89.80
2022-11-21T13:51:19.547Z,89.60
2022-11-21T13:54:21.668Z,89.50
2022-11-21T13:57:07.033Z,89.20
2022-11-21T13:59:52.040Z,89.40
2022-11-21T14:02:38.246Z,89.20
2022-11-21T14:05:22.573Z,89.40
2022-11-21T14:07:49.906Z,89.30
2022-11-21T14:10:25.964Z,89.10
2022-11-21T14:12:54.945Z,89.20
2022-11-21T14:15:51.651Z,89.10
2022-11-21T14:18:24.558Z,89.10
2022-11-21T14:20:57.003Z,89.20
2022-11-21T14:23:26.966Z,89.00
2022-11-21T14:26:00.105Z,88.80
2022-11-21T14:28:33.211Z,88.80
2022-11-21T14:31:09.156Z,89.00
2022-11-21T14:33:43.648Z,88.70
2022-11-21T14:36:19.026Z,88.60
2022-11-21T14:39:20.897Z,88.60
2022-11-21T14:41:43.238Z,88.50
2022-11-21T14:44:10.467Z,88.50
2022-11-21T14:46:41.824Z,88.50
2022-11-21T14:49:11.167Z,88.40
2022-11-21T14:51:38.685Z,88.40
2022-11-21T14:54:28.296Z,88.40
2022-11-21T14:57:08.260Z,88.40
2022-11-21T14:59:43.185Z,88.30
2022-11-21T15:02:16.800Z,88.20
2022-11-21T15:04:48.014Z,88.10
2022-11-21T15:07:28.384Z,87.90
2022-11-21T15:12:48.303Z,87.80
2022-11-21T15:15:36.306Z,87.80
2022-11-21T15:21:01.376Z,87.60
2022-11-21T15:23:34.540Z,87.60
2022-11-21T15:26:02.194Z,87.50
2022-11-21T15:28:31.052Z,87.50
2022-11-21T15:31:20.682Z,88.10
2022-11-21T15:37:04.783Z,87.40
2022-11-21T15:39:33.452Z,87.10
2022-11-21T15:42:48.476Z,87.10
2022-11-21T15:45:20.354Z,87.10
2022-11-21T15:47:48.785Z,87.50
2022-11-21T15:50:16.917Z,87.80
2022-11-21T15:52:49.619Z,87.80
2022-11-21T15:55:25.295Z,87.70
2022-11-21T15:57:52.561Z,87.80
2022-11-21T16:00:19.788Z,87.70
2022-11-21T16:02:47.458Z,87.50
2022-11-21T16:05:15.919Z,87.60
2022-11-21T16:07:43.168Z,87.60
2022-11-21T16:10:21.030Z,87.40
2022-11-21T16:12:53.224Z,87.40
2022-11-21T16:15:20.638Z,87.30
2022-11-21T16:17:48.025Z,87.30
2022-11-21T16:20:15.601Z,87.20
2022-11-21T16:22:47.191Z,87.20
2022-11-21T16:25:15.416Z,87.20
2022-11-21T16:27:42.513Z,87.00
2022-11-21T16:30:10.113Z,86.90
2022-11-21T16:32:37.254Z,87.00
2022-11-21T16:35:05.271Z,86.90
2022-11-21T16:37:33.021Z,87.00
2022-11-21T16:40:00.254Z,87.00
2022-11-21T16:42:27.419Z,87.00
2022-11-21T16:44:54.557Z,86.80
2022-11-21T16:47:21.709Z,86.90
2022-11-21T16:49:49.257Z,86.70
2022-11-21T16:52:18.286Z,86.80
2022-11-21T16:54:45.601Z,86.70
2022-11-21T16:57:12.964Z,86.60
2022-11-21T16:59:40.165Z,86.60
2022-11-21T17:02:07.707Z,86.60
2022-11-21T17:04:36.668Z,86.60
2022-11-21T17:07:03.928Z,86.60
2022-11-21T17:09:33.553Z,86.40
2022-11-21T17:12:00.810Z,86.40
2022-11-21T17:14:28.049Z,86.50
2022-11-21T17:16:55.449Z,86.40
2022-11-21T17:19:23.282Z,86.20
2022-11-21T17:21:50.541Z,86.30
2022-11-21T17:24:18.181Z,86.20
2022-11-21T17:26:45.280Z,86.30
2022-11-21T17:29:12.403Z,86.00
2022-11-21T17:31:41.924Z,86.10
2022-11-21T17:34:09.215Z,86.00
2022-11-21T17:36:38.419Z,85.90
2022-11-21T17:39:05.622Z,85.80
2022-11-21T17:41:32.863Z,85.70
2022-11-21T17:44:01.115Z,85.80
2022-11-21T17:46:28.576Z,85.80
2022-11-21T17:48:58.212Z,85.70
2022-11-21T17:51:33.499Z,85.70
2022-11-21T17:54:01.827Z,85.80
2022-11-21T17:56:31.380Z,85.70
2022-11-21T17:58:58.610Z,85.70
2022-11-21T18:01:26.390Z,85.80
2022-11-21T18:03:57.995Z,85.80
2022-11-21T18:06:28.405Z,85.70
2022-11-21T18:08:58.704Z,85.70
2022-11-21T18:11:33.202Z,85.50
2022-11-21T18:14:05.999Z,85.50
2022-11-21T18:16:33.918Z,85.50
2022-11-21T18:19:01.237Z,85.40
2022-11-21T18:21:33.018Z,85.40
2022-11-21T18:24:00.534Z,85.30
2022-11-21T18:26:30.356Z,85.40
2022-11-21T18:29:34.712Z,85.40
2022-11-21T18:31:47.473Z,85.40
2022-11-21T18:34:14.800Z,85.20
2022-11-21T18:36:42.014Z,85.40
2022-11-21T18:39:14.679Z,85.30
2022-11-21T18:41:43.388Z,85.20
2022-11-21T18:44:14.626Z,85.10
2022-11-21T18:46:47.495Z,85.20
2022-11-21T18:49:14.673Z,85.10
2022-11-21T18:51:41.915Z,85.10
2022-11-21T18:54:11.149Z,85.00
2022-11-21T18:56:39.682Z,85.10
2022-11-21T18:59:07.406Z,85.00
2022-11-21T19:01:36.244Z,84.90
2022-11-21T19:04:04.079Z,84.80
2022-11-21T19:06:31.539Z,84.90
2022-11-21T19:08:59.279Z,84.80
2022-11-21T19:11:30.566Z,84.80
2022-11-21T19:14:00.595Z,84.80
2022-11-21T19:16:31.275Z,84.70
2022-11-21T19:19:32.581Z,84.70
2022-11-21T19:21:48.396Z,84.70
2022-11-21T19:24:19.530Z,84.80
2022-11-21T19:26:46.873Z,84.60
2022-11-21T19:29:14.484Z,84.60
2022-11-21T19:31:45.748Z,84.60
2022-11-21T19:34:15.192Z,84.30
2022-11-21T19:36:43.647Z,84.90
2022-11-21T19:39:14.325Z,85.10
2022-11-21T19:41:41.724Z,85.00
2022-11-21T19:44:09.569Z,84.90
2022-11-21T19:46:39.149Z,85.00
2022-11-21T19:49:07.946Z,85.00
2022-11-21T19:51:41.074Z,84.80
2022-11-21T19:54:10.907Z,84.80
2022-11-21T19:56:38.041Z,84.60
2022-11-21T19:59:07.293Z,84.50
2022-11-21T20:01:35.419Z,84.40
2022-11-21T20:04:05.019Z,84.40
2022-11-21T20:06:38.722Z,84.30
2022-11-21T20:09:14.716Z,84.10
2022-11-21T20:11:43.509Z,84.70
2022-11-21T20:14:21.026Z,83.90
2022-11-21T20:16:50.087Z,83.90
2022-11-21T20:19:19.246Z,83.90
2022-11-21T20:21:46.963Z,83.70
2022-11-21T20:24:14.746Z,83.80
2022-11-21T20:26:42.863Z,83.80
2022-11-21T20:29:13.315Z,83.80
2022-11-21T20:31:40.760Z,83.60
2022-11-21T20:34:12.851Z,83.50
2022-11-21T20:36:41.042Z,83.50
2022-11-21T20:39:18.874Z,83.50
2022-11-21T20:41:47.289Z,83.50
2022-11-21T20:45:20.211Z,83.50
2022-11-21T20:47:08.091Z,83.30
2022-11-21T20:49:35.316Z,83.40
2022-11-21T20:53:43.898Z,83.30
2022-11-21T20:54:49.657Z,83.10
2022-11-21T20:57:16.899Z,83.60
2022-11-21T20:59:44.127Z,83.10
2022-11-21T21:02:15.052Z,82.80
2022-11-21T21:04:42.527Z,82.70
2022-11-21T21:07:10.155Z,82.80
2022-11-21T21:09:37.406Z,82.70
2022-11-21T21:12:05.798Z,82.70
2022-11-21T21:14:33.131Z,82.70
2022-11-21T21:17:00.315Z,82.60
2022-11-21T21:19:27.637Z,82.40
2022-11-21T21:21:54.961Z,82.60
2022-11-21T21:24:22.389Z,82.30
2022-11-21T21:26:49.924Z,82.40
2022-11-21T21:29:21.028Z,82.20
2022-11-21T21:31:52.598Z,82.10
2022-11-21T21:34:23.787Z,82.10
2022-11-21T21:36:51.587Z,81.90
2022-11-21T21:39:18.835Z,82.00
2022-11-21T21:41:47.124Z,82.10
2022-11-21T21:44:15.019Z,81.90
2022-11-21T21:46:42.344Z,81.80
2022-11-21T21:49:09.511Z,81.60
2022-11-21T21:51:37.631Z,81.80
2022-11-21T21:54:05.393Z,81.70
2022-11-21T21:56:34.075Z,81.50
2022-11-21T21:59:01.411Z,81.50
2022-11-21T22:01:30.710Z,81.60
2022-11-21T22:04:00.368Z,81.50
2022-11-21T22:06:28.190Z,81.30
2022-11-21T22:08:56.150Z,81.40
2022-11-21T22:11:28.908Z,81.40
2022-11-21T22:13:58.096Z,81.30
2022-11-21T22:16:25.709Z,81.20
2022-11-21T22:18:53.249Z,81.10
2022-11-21T22:21:26.906Z,81.20
2022-11-21T22:24:23.677Z,81.20
2022-11-21T22:26:43.033Z,81.10
2022-11-21T22:29:10.335Z,81.20
2022-11-21T22:31:37.688Z,80.80
2022-11-21T22:34:04.814Z,81.00
2022-11-21T22:36:31.989Z,81.10
2022-11-21T22:38:59.043Z,81.20
2022-11-21T22:41:27.534Z,81.00
2022-11-21T22:43:59.433Z,81.20
2022-11-21T22:46:28.844Z,81.10
2022-11-21T22:48:56.117Z,80.80
2022-11-21T22:51:25.987Z,80.90
2022-11-21T22:53:53.585Z,81.10
2022-11-21T22:56:23.082Z,80.90
2022-11-21T22:58:50.911Z,80.80
2022-11-21T23:01:20.509Z,80.80
2022-11-21T23:03:49.357Z,80.90
2022-11-21T23:06:18.010Z,80.70
2022-11-21T23:08:45.375Z,80.90
2022-11-21T23:11:13.719Z,80.90
2022-11-21T23:13:42.863Z,80.70
2022-11-21T23:16:11.150Z,80.70
2022-11-21T23:18:38.602Z,80.80
2022-11-21T23:21:06.844Z,80.60
2022-11-21T23:23:34.070Z,80.60
2022-11-21T23:26:01.406Z,80.70
2022-11-21T23:28:28.576Z,80.60
2022-11-21T23:30:55.918Z,80.60
2022-11-21T23:33:23.299Z,80.70
2022-11-21T23:35:50.637Z,80.60
2022-11-21T23:38:18.591Z,80.60
2022-11-21T23:40:46.655Z,80.60
2022-11-21T23:43:14.876Z,80.50
2022-11-21T23:45:42.459Z,80.70
2022-11-21T23:48:09.788Z,80.50
2022-11-21T23:50:36.869Z,80.50
2022-11-21T23:53:04.303Z,80.50
2022-11-21T23:55:31.449Z,80.60
2022-11-21T23:57:58.574Z,80.50
